sensor_id;sensor_type;location;lat;lon;timestamp;pressure;altitude;pressure_sealevel;temperature;humidity
20115;BME280;10218;42.874;25.320;2022-12-07T00:01:11;97237.25;;;6.13;100.00
20115;BME280;10218;42.874;25.320;2022-12-07T00:03:41;97240.34;;;5.89;100.00
20115;BME280;10218;42.874;25.320;2022-12-07T00:06:10;97237.53;;;5.62;100.00
20115;BME280;10218;42.874;25.320;2022-12-07T00:08:38;97247.00;;;5.64;100.00
20115;BME280;10218;42.874;25.320;2022-12-07T00:11:11;97246.50;;;5.99;100.00
20115;BME280;10218;42.874;25.320;2022-12-07T00:13:39;97263.50;;;5.68;100.00
20115;BME280;10218;42.874;25.320;2022-12-07T00:16:15;97268.38;;;5.82;100.00
20115;BME280;10218;42.874;25.320;2022-12-07T00:18:43;97272.41;;;5.76;100.00
20115;BME280;10218;42.874;25.320;2022-12-07T00:21:20;97271.59;;;5.95;100.00
20115;BME280;10218;42.874;25.320;2022-12-07T00:23:48;97275.34;;;5.83;100.00
20115;BME280;10218;42.874;25.320;2022-12-07T00:26:20;97288.97;;;5.49;100.00
20115;BME280;10218;42.874;25.320;2022-12-07T00:28:49;97279.53;;;5.95;100.00
20115;BME280;10218;42.874;25.320;2022-12-07T00:31:22;97288.72;;;5.72;100.00
20115;BME280;10218;42.874;25.320;2022-12-07T00:33:50;97277.72;;;6.05;100.00
20115;BME280;10218;42.874;25.320;2022-12-07T00:36:19;97295.56;;;5.65;100.00
20115;BME280;10218;42.874;25.320;2022-12-07T00:38:50;97298.38;;;5.63;100.00
20115;BME280;10218;42.874;25.320;2022-12-07T00:41:20;97306.31;;;5.63;100.00
20115;BME280;10218;42.874;25.320;2022-12-07T00:43:49;97309.75;;;5.44;100.00
20115;BME280;10218;42.874;25.320;2022-12-07T00:46:16;97305.72;;;5.59;100.00
20115;BME280;10218;42.874;25.320;2022-12-07T00:48:45;97289.16;;;5.77;100.00
20115;BME280;10218;42.874;25.320;2022-12-07T00:51:14;97283.31;;;5.92;100.00
20115;BME280;10218;42.874;25.320;2022-12-07T00:53:42;97288.88;;;6.28;100.00
20115;BME280;10218;42.874;25.320;2022-12-07T00:58:41;97288.91;;;5.99;100.00
20115;BME280;10218;42.874;25.320;2022-12-07T01:01:09;97277.59;;;5.68;100.00
20115;BME280;10218;42.874;25.320;2022-12-07T01:03:38;97265.94;;;6.36;100.00
20115;BME280;10218;42.874;25.320;2022-12-07T01:06:05;97262.69;;;6.52;100.00
20115;BME280;10218;42.874;25.320;2022-12-07T01:08:33;97271.72;;;6.69;100.00
20115;BME280;10218;42.874;25.320;2022-12-07T01:11:04;97270.13;;;6.49;100.00
20115;BME280;10218;42.874;25.320;2022-12-07T01:13:32;97276.03;;;6.23;100.00
20115;BME280;10218;42.874;25.320;2022-12-07T01:16:03;97269.91;;;6.13;100.00
20115;BME280;10218;42.874;25.320;2022-12-07T01:18:34;97267.53;;;5.72;100.00
20115;BME280;10218;42.874;25.320;2022-12-07T01:21:03;97259.06;;;5.87;100.00
20115;BME280;10218;42.874;25.320;2022-12-07T01:23:31;97260.38;;;6.20;100.00
20115;BME280;10218;42.874;25.320;2022-12-07T01:26:00;97243.44;;;6.40;100.00
20115;BME280;10218;42.874;25.320;2022-12-07T01:28:28;97226.94;;;6.47;100.00
20115;BME280;10218;42.874;25.320;2022-12-07T01:31:01;97239.75;;;6.61;100.00
20115;BME280;10218;42.874;25.320;2022-12-07T01:33:30;97236.78;;;6.27;100.00
20115;BME280;10218;42.874;25.320;2022-12-07T01:36:07;97236.44;;;5.93;100.00
20115;BME280;10218;42.874;25.320;2022-12-07T01:38:35;97238.44;;;6.37;100.00
20115;BME280;10218;42.874;25.320;2022-12-07T01:41:02;97228.00;;;6.26;100.00
20115;BME280;10218;42.874;25.320;2022-12-07T01:43:31;97225.97;;;6.48;100.00
20115;BME280;10218;42.874;25.320;2022-12-07T01:46:00;97224.44;;;6.55;100.00
20115;BME280;10218;42.874;25.320;2022-12-07T01:48:34;97217.84;;;6.59;100.00
20115;BME280;10218;42.874;25.320;2022-12-07T01:51:09;97220.38;;;6.04;100.00
20115;BME280;10218;42.874;25.320;2022-12-07T01:53:40;97222.47;;;5.91;100.00
20115;BME280;10218;42.874;25.320;2022-12-07T01:56:12;97218.28;;;5.98;100.00
20115;BME280;10218;42.874;25.320;2022-12-07T01:58:44;97220.56;;;6.30;100.00
20115;BME280;10218;42.874;25.320;2022-12-07T02:01:13;97222.38;;;6.39;100.00
20115;BME280;10218;42.874;25.320;2022-12-07T02:03:43;97211.47;;;6.42;100.00
20115;BME280;10218;42.874;25.320;2022-12-07T02:06:13;97205.66;;;6.29;100.00
20115;BME280;10218;42.874;25.320;2022-12-07T02:08:43;97218.97;;;6.47;100.00
20115;BME280;10218;42.874;25.320;2022-12-07T02:11:11;97210.87;;;6.48;100.00
20115;BME280;10218;42.874;25.320;2022-12-07T02:13:40;97212.78;;;6.56;100.00
20115;BME280;10218;42.874;25.320;2022-12-07T02:16:38;97206.88;;;6.71;100.00
20115;BME280;10218;42.874;25.320;2022-12-07T02:22:26;97208.09;;;6.40;100.00
20115;BME280;10218;42.874;25.320;2022-12-07T02:30:08;97190.19;;;6.52;100.00
20115;BME280;10218;42.874;25.320;2022-12-07T02:33:26;97172.25;;;6.63;100.00
20115;BME280;10218;42.874;25.320;2022-12-07T02:36:01;97190.59;;;6.84;100.00
20115;BME280;10218;42.874;25.320;2022-12-07T02:41:25;97198.75;;;5.99;100.00
20115;BME280;10218;42.874;25.320;2022-12-07T02:43:56;97199.13;;;5.85;100.00
20115;BME280;10218;42.874;25.320;2022-12-07T02:46:31;97169.38;;;6.10;100.00
20115;BME280;10218;42.874;25.320;2022-12-07T02:49:00;97199.13;;;6.51;100.00
20115;BME280;10218;42.874;25.320;2022-12-07T02:51:32;97193.69;;;6.52;100.00
20115;BME280;10218;42.874;25.320;2022-12-07T02:54:00;97186.34;;;6.36;100.00
20115;BME280;10218;42.874;25.320;2022-12-07T02:59:42;97195.28;;;6.35;100.00
20115;BME280;10218;42.874;25.320;2022-12-07T03:13:07;97196.84;;;6.65;100.00
20115;BME280;10218;42.874;25.320;2022-12-07T03:15:46;97193.97;;;6.76;100.00
20115;BME280;10218;42.874;25.320;2022-12-07T03:18:19;97193.63;;;6.34;100.00
20115;BME280;10218;42.874;25.320;2022-12-07T03:20:50;97197.09;;;6.72;100.00
20115;BME280;10218;42.874;25.320;2022-12-07T03:23:18;97197.66;;;6.75;100.00
20115;BME280;10218;42.874;25.320;2022-12-07T03:25:49;97197.66;;;6.75;100.00
20115;BME280;10218;42.874;25.320;2022-12-07T03:28:24;97200.75;;;6.34;100.00
20115;BME280;10218;42.874;25.320;2022-12-07T03:31:13;97188.94;;;6.46;100.00
20115;BME280;10218;42.874;25.320;2022-12-07T03:34:22;97200.31;;;6.38;100.00
20115;BME280;10218;42.874;25.320;2022-12-07T03:36:50;97190.59;;;6.57;100.00
20115;BME280;10218;42.874;25.320;2022-12-07T03:41:55;97181.06;;;6.64;100.00
20115;BME280;10218;42.874;25.320;2022-12-07T03:44:24;97192.59;;;6.45;100.00
20115;BME280;10218;42.874;25.320;2022-12-07T03:47:05;97199.69;;;6.17;100.00
20115;BME280;10218;42.874;25.320;2022-12-07T03:52:39;97195.91;;;6.10;100.00
20115;BME280;10218;42.874;25.320;2022-12-07T03:57:51;97190.94;;;5.97;100.00
20115;BME280;10218;42.874;25.320;2022-12-07T04:00:20;97185.88;;;6.14;100.00
20115;BME280;10218;42.874;25.320;2022-12-07T04:02:51;97188.97;;;5.99;100.00
20115;BME280;10218;42.874;25.320;2022-12-07T04:05:18;97192.00;;;6.05;100.00
20115;BME280;10218;42.874;25.320;2022-12-07T04:07:46;97187.56;;;5.86;100.00
20115;BME280;10218;42.874;25.320;2022-12-07T04:10:13;97185.97;;;6.22;100.00
20115;BME280;10218;42.874;25.320;2022-12-07T04:12:40;97189.78;;;6.19;100.00
20115;BME280;10218;42.874;25.320;2022-12-07T04:15:07;97177.84;;;6.33;100.00
20115;BME280;10218;42.874;25.320;2022-12-07T04:17:35;97165.19;;;6.17;100.00
20115;BME280;10218;42.874;25.320;2022-12-07T04:20:03;97173.84;;;6.19;100.00
20115;BME280;10218;42.874;25.320;2022-12-07T04:22:31;97177.41;;;6.37;100.00
20115;BME280;10218;42.874;25.320;2022-12-07T04:24:58;97177.91;;;6.78;100.00
20115;BME280;10218;42.874;25.320;2022-12-07T04:27:25;97176.19;;;6.86;100.00
20115;BME280;10218;42.874;25.320;2022-12-07T04:29:53;97180.75;;;6.94;100.00
20115;BME280;10218;42.874;25.320;2022-12-07T04:32:21;97175.78;;;6.81;100.00
20115;BME280;10218;42.874;25.320;2022-12-07T04:34:48;97179.09;;;6.93;100.00
20115;BME280;10218;42.874;25.320;2022-12-07T04:37:18;97188.81;;;6.48;100.00
20115;BME280;10218;42.874;25.320;2022-12-07T04:39:45;97180.22;;;6.63;100.00
20115;BME280;10218;42.874;25.320;2022-12-07T04:42:12;97184.62;;;6.45;100.00
20115;BME280;10218;42.874;25.320;2022-12-07T04:44:39;97172.78;;;6.94;100.00
20115;BME280;10218;42.874;25.320;2022-12-07T04:47:06;97169.47;;;7.10;100.00
20115;BME280;10218;42.874;25.320;2022-12-07T04:49:33;97158.75;;;7.02;100.00
20115;BME280;10218;42.874;25.320;2022-12-07T04:52:01;97158.78;;;6.74;100.00
20115;BME280;10218;42.874;25.320;2022-12-07T04:54:28;97144.41;;;6.50;100.00
20115;BME280;10218;42.874;25.320;2022-12-07T04:56:55;97161.31;;;6.49;100.00
20115;BME280;10218;42.874;25.320;2022-12-07T04:59:22;97144.28;;;6.41;100.00
20115;BME280;10218;42.874;25.320;2022-12-07T05:01:50;97150.94;;;6.55;100.00
20115;BME280;10218;42.874;25.320;2022-12-07T05:04:17;97141.31;;;6.17;100.00
20115;BME280;10218;42.874;25.320;2022-12-07T05:06:44;97144.47;;;6.30;100.00
20115;BME280;10218;42.874;25.320;2022-12-07T05:09:12;97143.87;;;6.09;100.00
20115;BME280;10218;42.874;25.320;2022-12-07T05:11:39;97135.78;;;6.01;100.00
20115;BME280;10218;42.874;25.320;2022-12-07T05:14:19;97141.22;;;6.09;100.00
20115;BME280;10218;42.874;25.320;2022-12-07T05:16:49;97128.59;;;6.21;100.00
20115;BME280;10218;42.874;25.320;2022-12-07T05:19:17;97152.97;;;5.97;100.00
20115;BME280;10218;42.874;25.320;2022-12-07T05:21:45;97140.16;;;6.29;100.00
20115;BME280;10218;42.874;25.320;2022-12-07T05:24:14;97139.62;;;6.53;100.00
20115;BME280;10218;42.874;25.320;2022-12-07T05:26:41;97133.41;;;6.35;100.00
20115;BME280;10218;42.874;25.320;2022-12-07T05:29:12;97122.78;;;6.44;100.00
20115;BME280;10218;42.874;25.320;2022-12-07T05:31:39;97125.81;;;6.22;100.00
20115;BME280;10218;42.874;25.320;2022-12-07T05:34:07;97133.56;;;5.96;100.00
20115;BME280;10218;42.874;25.320;2022-12-07T05:36:34;97133.16;;;6.65;100.00
20115;BME280;10218;42.874;25.320;2022-12-07T05:39:02;97132.75;;;7.05;100.00
20115;BME280;10218;42.874;25.320;2022-12-07T05:41:29;97131.41;;;6.74;100.00
20115;BME280;10218;42.874;25.320;2022-12-07T05:44:15;97129.94;;;6.62;100.00
20115;BME280;10218;42.874;25.320;2022-12-07T05:46:42;97128.56;;;6.30;100.00
20115;BME280;10218;42.874;25.320;2022-12-07T05:49:09;97131.41;;;6.19;100.00
20115;BME280;10218;42.874;25.320;2022-12-07T05:51:37;97118.28;;;6.18;100.00
20115;BME280;10218;42.874;25.320;2022-12-07T05:54:04;97124.78;;;6.33;100.00
20115;BME280;10218;42.874;25.320;2022-12-07T05:56:33;97125.13;;;6.48;100.00
20115;BME280;10218;42.874;25.320;2022-12-07T05:59:00;97123.84;;;6.52;100.00
20115;BME280;10218;42.874;25.320;2022-12-07T06:01:46;97129.00;;;6.53;100.00
20115;BME280;10218;42.874;25.320;2022-12-07T06:04:14;97124.09;;;6.31;100.00
20115;BME280;10218;42.874;25.320;2022-12-07T06:06:41;97128.50;;;6.40;100.00
20115;BME280;10218;42.874;25.320;2022-12-07T06:09:08;97127.37;;;6.70;100.00
20115;BME280;10218;42.874;25.320;2022-12-07T06:11:35;97132.44;;;6.91;100.00
20115;BME280;10218;42.874;25.320;2022-12-07T06:14:21;97129.03;;;6.71;100.00
20115;BME280;10218;42.874;25.320;2022-12-07T06:16:48;97131.72;;;7.06;100.00
20115;BME280;10218;42.874;25.320;2022-12-07T06:19:15;97146.06;;;6.78;100.00
20115;BME280;10218;42.874;25.320;2022-12-07T06:21:42;97141.31;;;6.72;100.00
20115;BME280;10218;42.874;25.320;2022-12-07T06:24:11;97138.88;;;6.33;100.00
20115;BME280;10218;42.874;25.320;2022-12-07T06:26:39;97136.66;;;7.01;100.00
20115;BME280;10218;42.874;25.320;2022-12-07T06:29:06;97127.94;;;6.91;100.00
20115;BME280;10218;42.874;25.320;2022-12-07T06:31:35;97125.00;;;7.29;100.00
20115;BME280;10218;42.874;25.320;2022-12-07T06:34:04;97136.38;;;7.22;100.00
20115;BME280;10218;42.874;25.320;2022-12-07T06:36:32;97121.84;;;6.81;100.00
20115;BME280;10218;42.874;25.320;2022-12-07T06:38:59;97120.41;;;6.86;100.00
20115;BME280;10218;42.874;25.320;2022-12-07T06:41:26;97133.47;;;6.53;100.00
20115;BME280;10218;42.874;25.320;2022-12-07T06:43:53;97135.41;;;7.05;100.00
20115;BME280;10218;42.874;25.320;2022-12-07T06:46:22;97135.31;;;7.15;100.00
20115;BME280;10218;42.874;25.320;2022-12-07T06:48:50;97136.00;;;6.99;100.00
20115;BME280;10218;42.874;25.320;2022-12-07T06:51:17;97131.03;;;6.86;100.00
20115;BME280;10218;42.874;25.320;2022-12-07T06:53:44;97142.16;;;6.45;100.00
20115;BME280;10218;42.874;25.320;2022-12-07T06:56:11;97151.41;;;6.68;100.00
20115;BME280;10218;42.874;25.320;2022-12-07T06:58:39;97143.00;;;7.00;100.00
20115;BME280;10218;42.874;25.320;2022-12-07T07:01:11;97139.62;;;6.98;100.00
20115;BME280;10218;42.874;25.320;2022-12-07T07:03:38;97129.84;;;6.99;100.00
20115;BME280;10218;42.874;25.320;2022-12-07T07:06:06;97122.34;;;6.94;100.00
20115;BME280;10218;42.874;25.320;2022-12-07T07:08:35;97150.97;;;6.73;100.00
20115;BME280;10218;42.874;25.320;2022-12-07T07:11:02;97146.44;;;6.83;100.00
20115;BME280;10218;42.874;25.320;2022-12-07T07:13:30;97144.34;;;7.04;100.00
20115;BME280;10218;42.874;25.320;2022-12-07T07:15:57;97151.81;;;6.73;100.00
20115;BME280;10218;42.874;25.320;2022-12-07T07:18:25;97152.22;;;6.96;100.00
20115;BME280;10218;42.874;25.320;2022-12-07T07:20:52;97151.50;;;6.76;100.00
20115;BME280;10218;42.874;25.320;2022-12-07T07:23:21;97155.06;;;7.91;100.00
20115;BME280;10218;42.874;25.320;2022-12-07T07:25:48;97146.91;;;8.18;100.00
20115;BME280;10218;42.874;25.320;2022-12-07T07:28:16;97153.28;;;8.00;100.00
20115;BME280;10218;42.874;25.320;2022-12-07T07:30:43;97153.41;;;8.16;100.00
20115;BME280;10218;42.874;25.320;2022-12-07T07:33:11;97149.31;;;7.78;100.00
20115;BME280;10218;42.874;25.320;2022-12-07T07:35:39;97145.88;;;8.11;100.00
20115;BME280;10218;42.874;25.320;2022-12-07T07:38:07;97144.53;;;8.67;100.00
20115;BME280;10218;42.874;25.320;2022-12-07T07:40:34;97142.31;;;9.05;100.00
20115;BME280;10218;42.874;25.320;2022-12-07T07:43:02;97146.88;;;8.70;100.00
20115;BME280;10218;42.874;25.320;2022-12-07T07:45:29;97152.56;;;8.15;100.00
20115;BME280;10218;42.874;25.320;2022-12-07T07:47:59;97138.53;;;7.62;100.00
20115;BME280;10218;42.874;25.320;2022-12-07T07:50:26;97155.81;;;8.01;100.00
20115;BME280;10218;42.874;25.320;2022-12-07T07:52:54;97156.19;;;7.89;100.00
20115;BME280;10218;42.874;25.320;2022-12-07T07:55:21;97155.19;;;8.07;100.00
20115;BME280;10218;42.874;25.320;2022-12-07T07:57:48;97145.59;;;8.90;100.00
20115;BME280;10218;42.874;25.320;2022-12-07T08:00:19;97146.59;;;8.89;100.00
20115;BME280;10218;42.874;25.320;2022-12-07T08:02:46;97145.50;;;8.58;100.00
20115;BME280;10218;42.874;25.320;2022-12-07T08:05:13;97136.09;;;8.12;100.00
20115;BME280;10218;42.874;25.320;2022-12-07T08:07:41;97133.59;;;8.18;100.00
20115;BME280;10218;42.874;25.320;2022-12-07T08:10:11;97130.44;;;8.41;100.00
20115;BME280;10218;42.874;25.320;2022-12-07T08:12:40;97121.88;;;8.63;100.00
20115;BME280;10218;42.874;25.320;2022-12-07T08:15:29;97130.38;;;9.41;100.00
20115;BME280;10218;42.874;25.320;2022-12-07T08:17:57;97120.50;;;9.98;100.00
20115;BME280;10218;42.874;25.320;2022-12-07T08:20:24;97114.03;;;9.76;100.00
20115;BME280;10218;42.874;25.320;2022-12-07T08:22:52;97112.97;;;10.34;100.00
20115;BME280;10218;42.874;25.320;2022-12-07T08:25:19;97105.63;;;11.06;100.00
20115;BME280;10218;42.874;25.320;2022-12-07T08:27:48;97109.69;;;12.37;100.00
20115;BME280;10218;42.874;25.320;2022-12-07T08:30:16;97121.41;;;12.21;100.00
20115;BME280;10218;42.874;25.320;2022-12-07T08:32:46;97121.38;;;11.46;100.00
20115;BME280;10218;42.874;25.320;2022-12-07T08:35:14;97118.94;;;13.29;100.00
20115;BME280;10218;42.874;25.320;2022-12-07T08:37:42;97118.78;;;13.01;100.00
20115;BME280;10218;42.874;25.320;2022-12-07T08:40:10;97121.72;;;11.66;100.00
20115;BME280;10218;42.874;25.320;2022-12-07T08:42:38;97118.28;;;12.32;100.00
20115;BME280;10218;42.874;25.320;2022-12-07T08:45:11;97125.00;;;12.87;100.00
20115;BME280;10218;42.874;25.320;2022-12-07T08:47:55;97119.13;;;14.81;100.00
20115;BME280;10218;42.874;25.320;2022-12-07T08:50:28;97118.63;;;15.12;90.07
20115;BME280;10218;42.874;25.320;2022-12-07T08:52:57;97104.72;;;15.09;93.56
20115;BME280;10218;42.874;25.320;2022-12-07T08:55:26;97108.81;;;14.91;97.57
20115;BME280;10218;42.874;25.320;2022-12-07T08:57:54;97107.28;;;15.23;87.94
20115;BME280;10218;42.874;25.320;2022-12-07T09:00:21;97099.38;;;13.14;100.00
20115;BME280;10218;42.874;25.320;2022-12-07T09:02:49;97098.09;;;13.31;100.00
20115;BME280;10218;42.874;25.320;2022-12-07T09:05:16;97088.84;;;13.34;100.00
20115;BME280;10218;42.874;25.320;2022-12-07T09:07:45;97080.66;;;13.63;100.00
20115;BME280;10218;42.874;25.320;2022-12-07T09:10:13;97070.81;;;15.21;90.33
20115;BME280;10218;42.874;25.320;2022-12-07T09:12:40;97076.13;;;15.81;80.98
20115;BME280;10218;42.874;25.320;2022-12-07T09:15:07;97078.41;;;15.78;79.51
20115;BME280;10218;42.874;25.320;2022-12-07T09:17:35;97069.88;;;14.81;90.62
20115;BME280;10218;42.874;25.320;2022-12-07T09:20:04;97065.63;;;15.19;92.74
20115;BME280;10218;42.874;25.320;2022-12-07T09:22:33;97061.13;;;14.31;100.00
20115;BME280;10218;42.874;25.320;2022-12-07T09:25:00;97065.03;;;13.73;100.00
20115;BME280;10218;42.874;25.320;2022-12-07T09:27:28;97061.25;;;13.18;100.00
20115;BME280;10218;42.874;25.320;2022-12-07T09:29:55;97059.84;;;13.44;100.00
20115;BME280;10218;42.874;25.320;2022-12-07T09:32:22;97053.31;;;12.74;100.00
20115;BME280;10218;42.874;25.320;2022-12-07T09:34:50;97049.44;;;13.62;100.00
20115;BME280;10218;42.874;25.320;2022-12-07T09:37:17;97042.72;;;13.23;100.00
20115;BME280;10218;42.874;25.320;2022-12-07T09:39:44;97045.25;;;12.60;100.00
20115;BME280;10218;42.874;25.320;2022-12-07T09:42:36;97052.34;;;12.17;100.00
20115;BME280;10218;42.874;25.320;2022-12-07T09:45:13;97041.84;;;12.66;100.00
20115;BME280;10218;42.874;25.320;2022-12-07T09:47:41;97046.31;;;12.15;100.00
20115;BME280;10218;42.874;25.320;2022-12-07T09:50:34;97045.19;;;11.94;100.00
20115;BME280;10218;42.874;25.320;2022-12-07T09:53:13;97047.69;;;11.81;100.00
20115;BME280;10218;42.874;25.320;2022-12-07T09:55:42;97046.53;;;12.28;100.00
20115;BME280;10218;42.874;25.320;2022-12-07T09:58:29;97042.16;;;12.41;100.00
20115;BME280;10218;42.874;25.320;2022-12-07T10:01:09;97034.97;;;11.98;100.00
20115;BME280;10218;42.874;25.320;2022-12-07T10:03:39;97035.81;;;11.61;100.00
20115;BME280;10218;42.874;25.320;2022-12-07T10:06:07;97039.28;;;10.79;100.00
20115;BME280;10218;42.874;25.320;2022-12-07T10:08:34;97032.31;;;11.98;100.00
20115;BME280;10218;42.874;25.320;2022-12-07T10:11:02;97040.50;;;12.11;100.00
20115;BME280;10218;42.874;25.320;2022-12-07T10:13:48;97041.78;;;12.15;100.00
20115;BME280;10218;42.874;25.320;2022-12-07T10:16:40;97026.94;;;12.78;100.00
20115;BME280;10218;42.874;25.320;2022-12-07T10:19:19;97023.72;;;12.68;100.00
20115;BME280;10218;42.874;25.320;2022-12-07T10:22:09;97015.38;;;12.41;100.00
20115;BME280;10218;42.874;25.320;2022-12-07T10:24:39;97029.22;;;11.49;100.00
20115;BME280;10218;42.874;25.320;2022-12-07T10:27:21;97000.22;;;12.49;100.00
20115;BME280;10218;42.874;25.320;2022-12-07T10:29:50;97006.47;;;12.56;100.00
20115;BME280;10218;42.874;25.320;2022-12-07T10:34:46;96994.69;;;12.71;100.00
20115;BME280;10218;42.874;25.320;2022-12-07T10:37:18;96993.41;;;13.24;100.00
20115;BME280;10218;42.874;25.320;2022-12-07T10:39:48;97007.09;;;11.55;100.00
20115;BME280;10218;42.874;25.320;2022-12-07T10:42:23;97006.25;;;11.92;100.00
20115;BME280;10218;42.874;25.320;2022-12-07T10:48:06;96989.84;;;12.46;100.00
20115;BME280;10218;42.874;25.320;2022-12-07T10:50:47;96979.31;;;13.01;100.00
20115;BME280;10218;42.874;25.320;2022-12-07T11:07:34;96954.47;;;13.97;100.00
20115;BME280;10218;42.874;25.320;2022-12-07T11:15:26;96949.94;;;16.94;84.42
20115;BME280;10218;42.874;25.320;2022-12-07T11:18:09;96952.13;;;18.64;66.21
20115;BME280;10218;42.874;25.320;2022-12-07T11:21:00;96942.16;;;18.03;65.64
20115;BME280;10218;42.874;25.320;2022-12-07T11:35:42;96926.34;;;18.07;64.66
20115;BME280;10218;42.874;25.320;2022-12-07T11:38:15;96928.75;;;18.81;61.20
20115;BME280;10218;42.874;25.320;2022-12-07T11:40:47;96923.50;;;18.86;59.10
20115;BME280;10218;42.874;25.320;2022-12-07T11:43:23;96914.28;;;19.70;57.93
20115;BME280;10218;42.874;25.320;2022-12-07T11:46:14;96915.34;;;22.99;48.54
20115;BME280;10218;42.874;25.320;2022-12-07T11:49:10;96909.38;;;19.37;55.33
20115;BME280;10218;42.874;25.320;2022-12-07T11:51:37;96910.38;;;19.78;54.62
20115;BME280;10218;42.874;25.320;2022-12-07T11:54:12;96885.31;;;17.73;62.70
20115;BME280;10218;42.874;25.320;2022-12-07T11:56:41;96892.06;;;18.85;59.38
20115;BME280;10218;42.874;25.320;2022-12-07T11:59:18;96894.28;;;19.18;60.00
20115;BME280;10218;42.874;25.320;2022-12-07T12:02:13;96891.41;;;19.89;55.53
20115;BME280;10218;42.874;25.320;2022-12-07T12:07:33;96884.53;;;21.07;53.58
20115;BME280;10218;42.874;25.320;2022-12-07T12:13:57;96873.81;;;19.92;54.16
20115;BME280;10218;42.874;25.320;2022-12-07T12:17:21;96885.75;;;19.79;53.35
20115;BME280;10218;42.874;25.320;2022-12-07T12:23:12;96867.41;;;20.61;53.47
20115;BME280;10218;42.874;25.320;2022-12-07T12:25:42;96864.47;;;21.08;52.25
20115;BME280;10218;42.874;25.320;2022-12-07T12:31:09;96866.41;;;20.96;52.25
20115;BME280;10218;42.874;25.320;2022-12-07T12:33:44;96855.34;;;21.14;51.28
20115;BME280;10218;42.874;25.320;2022-12-07T12:47:03;96852.66;;;20.85;51.37
20115;BME280;10218;42.874;25.320;2022-12-07T12:49:42;96857.00;;;21.15;51.22
20115;BME280;10218;42.874;25.320;2022-12-07T12:55:12;96849.91;;;17.81;65.99
20115;BME280;10218;42.874;25.320;2022-12-07T12:57:40;96843.09;;;17.11;73.58
20115;BME280;10218;42.874;25.320;2022-12-07T13:00:20;96845.81;;;16.48;84.66
20115;BME280;10218;42.874;25.320;2022-12-07T13:02:56;96846.56;;;15.79;93.57
20115;BME280;10218;42.874;25.320;2022-12-07T13:05:27;96848.91;;;15.30;100.00
20115;BME280;10218;42.874;25.320;2022-12-07T13:07:58;96842.91;;;15.15;100.00
20115;BME280;10218;42.874;25.320;2022-12-07T13:10:34;96840.41;;;15.59;100.00
20115;BME280;10218;42.874;25.320;2022-12-07T13:15:41;96840.97;;;16.63;90.45
20115;BME280;10218;42.874;25.320;2022-12-07T13:26:36;96851.72;;;14.30;100.00
20115;BME280;10218;42.874;25.320;2022-12-07T13:29:16;96852.78;;;13.81;100.00
20115;BME280;10218;42.874;25.320;2022-12-07T13:31:49;96854.81;;;13.38;100.00
20115;BME280;10218;42.874;25.320;2022-12-07T13:34:39;96848.62;;;14.33;100.00
20115;BME280;10218;42.874;25.320;2022-12-07T13:37:26;96846.56;;;14.35;100.00
20115;BME280;10218;42.874;25.320;2022-12-07T13:40:11;96845.06;;;14.19;100.00
20115;BME280;10218;42.874;25.320;2022-12-07T13:42:43;96841.28;;;13.94;100.00
20115;BME280;10218;42.874;25.320;2022-12-07T13:48:21;96836.69;;;13.88;100.00
20115;BME280;10218;42.874;25.320;2022-12-07T13:50:58;96839.63;;;13.52;100.00
20115;BME280;10218;42.874;25.320;2022-12-07T13:53:26;96840.56;;;13.38;100.00
20115;BME280;10218;42.874;25.320;2022-12-07T13:55:58;96837.91;;;13.79;100.00
20115;BME280;10218;42.874;25.320;2022-12-07T13:58:31;96831.94;;;13.42;100.00
20115;BME280;10218;42.874;25.320;2022-12-07T14:00:59;96837.81;;;13.59;100.00
20115;BME280;10218;42.874;25.320;2022-12-07T14:03:30;96836.88;;;13.39;100.00
20115;BME280;10218;42.874;25.320;2022-12-07T14:06:25;96816.56;;;13.02;100.00
20115;BME280;10218;42.874;25.320;2022-12-07T14:09:21;96848.16;;;13.27;100.00
20115;BME280;10218;42.874;25.320;2022-12-07T14:11:50;96851.34;;;12.89;100.00
20115;BME280;10218;42.874;25.320;2022-12-07T14:14:21;96835.03;;;13.11;100.00
20115;BME280;10218;42.874;25.320;2022-12-07T14:17:18;96839.09;;;13.07;100.00
20115;BME280;10218;42.874;25.320;2022-12-07T14:19:49;96836.81;;;13.25;100.00
20115;BME280;10218;42.874;25.320;2022-12-07T14:24:47;96843.78;;;12.99;100.00
20115;BME280;10218;42.874;25.320;2022-12-07T14:27:19;96841.94;;;12.99;100.00
20115;BME280;10218;42.874;25.320;2022-12-07T14:29:47;96841.84;;;12.65;100.00
20115;BME280;10218;42.874;25.320;2022-12-07T14:32:22;96838.13;;;12.59;100.00
20115;BME280;10218;42.874;25.320;2022-12-07T14:37:29;96835.63;;;12.36;100.00
20115;BME280;10218;42.874;25.320;2022-12-07T14:39:57;96834.97;;;12.56;100.00
20115;BME280;10218;42.874;25.320;2022-12-07T14:42:29;96834.53;;;12.52;100.00
20115;BME280;10218;42.874;25.320;2022-12-07T14:44:58;96836.75;;;12.27;100.00
20115;BME280;10218;42.874;25.320;2022-12-07T14:47:26;96842.38;;;12.32;100.00
20115;BME280;10218;42.874;25.320;2022-12-07T14:50:16;96819.06;;;11.90;100.00
20115;BME280;10218;42.874;25.320;2022-12-07T14:52:54;96833.53;;;11.96;100.00
20115;BME280;10218;42.874;25.320;2022-12-07T14:55:42;96836.44;;;11.80;100.00
20115;BME280;10218;42.874;25.320;2022-12-07T14:58:14;96834.50;;;11.74;100.00
20115;BME280;10218;42.874;25.320;2022-12-07T15:00:42;96829.41;;;11.93;100.00
20115;BME280;10218;42.874;25.320;2022-12-07T15:03:09;96824.94;;;12.00;100.00
20115;BME280;10218;42.874;25.320;2022-12-07T15:05:37;96828.56;;;11.64;100.00
20115;BME280;10218;42.874;25.320;2022-12-07T15:08:04;96821.06;;;11.52;100.00
20115;BME280;10218;42.874;25.320;2022-12-07T15:10:33;96814.66;;;11.53;100.00